Terminal Aerodrome Forecast
Issued by NWS

Home | Current Version | Previous Version | Text Only | Print | Product List | Glossary Off
Versions: 1 2 3 4 5 6 7 8 9 10 11 12 13

156
FTUS42 KMHX 201721
TAFOAJ
TAF
KOAJ 201721Z 2018/2118 29008KT P6SM SKC
     FM210900 21007KT P6SM BKN060
     FM211700 25007KT P6SM SCT050
      AMD LTD TO CLD VIS AND WIND=

USA.gov is the U.S. government's official web portal to all federal, state and local government web resources and services.